sensor_id;sensor_type;location;lat;lon;timestamp;pressure;altitude;pressure_sealevel;temperature;humidity
12785;BME280;6456;42.680;23.260;2023-03-15T00:01:20;93675.97;;;7.51;56.55
12785;BME280;6456;42.680;23.260;2023-03-15T00:03:48;93623.56;;;7.15;58.34
12785;BME280;6456;42.680;23.260;2023-03-15T00:06:15;93671.69;;;7.56;57.45
12785;BME280;6456;42.680;23.260;2023-03-15T00:08:44;93674.16;;;7.51;57.46
12785;BME280;6456;42.680;23.260;2023-03-15T00:11:14;93595.28;;;7.05;59.14
12785;BME280;6456;42.680;23.260;2023-03-15T00:13:41;93678.78;;;7.49;59.20
12785;BME280;6456;42.680;23.260;2023-03-15T00:16:08;93678.44;;;7.46;57.75
12785;BME280;6456;42.680;23.260;2023-03-15T00:18:35;93573.50;;;6.68;57.25
12785;BME280;6456;42.680;23.260;2023-03-15T00:21:02;93571.56;;;6.57;56.96
12785;BME280;6456;42.680;23.260;2023-03-15T00:23:29;93674.72;;;7.35;56.88
12785;BME280;6456;42.680;23.260;2023-03-15T00:25:58;93648.94;;;7.14;56.70
12785;BME280;6456;42.680;23.260;2023-03-15T00:28:25;93668.81;;;7.40;56.55
12785;BME280;6456;42.680;23.260;2023-03-15T00:31:02;93650.78;;;7.32;56.51
12785;BME280;6456;42.680;23.260;2023-03-15T00:33:29;93665.34;;;7.46;56.83
12785;BME280;6456;42.680;23.260;2023-03-15T00:36:02;93504.22;;;6.34;56.32
12785;BME280;6456;42.680;23.260;2023-03-15T00:38:29;93656.94;;;7.44;56.26
12785;BME280;6456;42.680;23.260;2023-03-15T00:40:58;93654.88;;;7.46;56.19
12785;BME280;6456;42.680;23.260;2023-03-15T00:43:24;93598.06;;;7.10;56.42
12785;BME280;6456;42.680;23.260;2023-03-15T00:45:51;93659.69;;;7.49;56.76
12785;BME280;6456;42.680;23.260;2023-03-15T00:48:18;93655.25;;;7.49;56.72
12785;BME280;6456;42.680;23.260;2023-03-15T00:50:45;93645.81;;;7.48;56.64
12785;BME280;6456;42.680;23.260;2023-03-15T00:53:14;93637.38;;;7.46;56.70
12785;BME280;6456;42.680;23.260;2023-03-15T00:55:41;93642.00;;;7.44;57.13
12785;BME280;6456;42.680;23.260;2023-03-15T00:58:09;93638.97;;;7.47;56.93
12785;BME280;6456;42.680;23.260;2023-03-15T01:00:36;93622.66;;;7.45;56.97
12785;BME280;6456;42.680;23.260;2023-03-15T01:03:03;93626.97;;;7.58;57.20
12785;BME280;6456;42.680;23.260;2023-03-15T01:05:30;93520.66;;;6.84;57.48
12785;BME280;6456;42.680;23.260;2023-03-15T01:07:57;93461.75;;;6.45;57.72
12785;BME280;6456;42.680;23.260;2023-03-15T01:10:24;93625.59;;;7.55;58.72
12785;BME280;6456;42.680;23.260;2023-03-15T01:12:51;93574.59;;;7.22;59.44
12785;BME280;6456;42.680;23.260;2023-03-15T01:15:20;93624.59;;;7.56;59.99
12785;BME280;6456;42.680;23.260;2023-03-15T01:17:47;93612.59;;;7.49;60.34
12785;BME280;6456;42.680;23.260;2023-03-15T01:20:14;93608.88;;;7.56;60.84
12785;BME280;6456;42.680;23.260;2023-03-15T01:22:41;93608.94;;;7.50;61.85
12785;BME280;6456;42.680;23.260;2023-03-15T01:25:09;93606.59;;;7.42;61.84
12785;BME280;6456;42.680;23.260;2023-03-15T01:27:36;93573.69;;;7.16;62.05
12785;BME280;6456;42.680;23.260;2023-03-15T01:30:04;93573.97;;;7.26;61.82
12785;BME280;6456;42.680;23.260;2023-03-15T01:32:32;93606.16;;;7.45;61.76
12785;BME280;6456;42.680;23.260;2023-03-15T01:34:59;93560.66;;;7.09;61.90
12785;BME280;6456;42.680;23.260;2023-03-15T01:37:26;93569.81;;;7.19;62.08
12785;BME280;6456;42.680;23.260;2023-03-15T01:39:53;93459.94;;;6.46;61.68
12785;BME280;6456;42.680;23.260;2023-03-15T01:42:20;93593.31;;;7.43;62.33
12785;BME280;6456;42.680;23.260;2023-03-15T01:44:50;93590.13;;;7.41;62.54
12785;BME280;6456;42.680;23.260;2023-03-15T01:47:18;93560.22;;;7.13;62.31
12785;BME280;6456;42.680;23.260;2023-03-15T01:49:50;93513.03;;;6.83;63.00
12785;BME280;6456;42.680;23.260;2023-03-15T01:52:21;93429.13;;;6.30;63.15
12785;BME280;6456;42.680;23.260;2023-03-15T01:54:52;93461.47;;;6.54;63.34
12785;BME280;6456;42.680;23.260;2023-03-15T01:57:22;93528.59;;;6.96;63.92
12785;BME280;6456;42.680;23.260;2023-03-15T01:59:53;93476.13;;;6.55;63.72
12785;BME280;6456;42.680;23.260;2023-03-15T02:02:22;93493.88;;;6.71;63.99
12785;BME280;6456;42.680;23.260;2023-03-15T02:04:55;93563.41;;;7.15;63.53
12785;BME280;6456;42.680;23.260;2023-03-15T02:07:25;93480.25;;;6.62;62.84
12785;BME280;6456;42.680;23.260;2023-03-15T02:09:58;93383.13;;;5.86;62.85
12785;BME280;6456;42.680;23.260;2023-03-15T02:12:29;93550.44;;;6.83;63.28
12785;BME280;6456;42.680;23.260;2023-03-15T02:14:58;93471.22;;;6.40;63.94
12785;BME280;6456;42.680;23.260;2023-03-15T02:17:31;93442.81;;;6.25;64.47
12785;BME280;6456;42.680;23.260;2023-03-15T02:20:10;93541.88;;;6.94;64.77
12785;BME280;6456;42.680;23.260;2023-03-15T02:22:46;93454.97;;;6.38;65.17
12785;BME280;6456;42.680;23.260;2023-03-15T02:25:21;93473.66;;;6.60;65.37
12785;BME280;6456;42.680;23.260;2023-03-15T02:27:50;93465.88;;;6.53;65.56
12785;BME280;6456;42.680;23.260;2023-03-15T02:30:19;93439.88;;;6.40;65.83
12785;BME280;6456;42.680;23.260;2023-03-15T02:32:46;93545.22;;;7.01;65.62
12785;BME280;6456;42.680;23.260;2023-03-15T02:35:22;93479.91;;;6.59;65.65
12785;BME280;6456;42.680;23.260;2023-03-15T02:37:49;93388.13;;;5.88;65.34
12785;BME280;6456;42.680;23.260;2023-03-15T02:40:21;93520.84;;;6.65;65.32
12785;BME280;6456;42.680;23.260;2023-03-15T02:42:53;93371.06;;;5.85;65.17
12785;BME280;6456;42.680;23.260;2023-03-15T02:45:22;93363.06;;;5.80;65.23
12785;BME280;6456;42.680;23.260;2023-03-15T02:47:49;93408.31;;;5.99;65.94
12785;BME280;6456;42.680;23.260;2023-03-15T02:50:17;93387.19;;;5.75;63.82
12785;BME280;6456;42.680;23.260;2023-03-15T02:52:44;93531.19;;;6.78;63.40
12785;BME280;6456;42.680;23.260;2023-03-15T02:55:11;93462.66;;;6.33;63.97
12785;BME280;6456;42.680;23.260;2023-03-15T02:57:38;93529.00;;;6.75;65.02
12785;BME280;6456;42.680;23.260;2023-03-15T03:00:07;93523.63;;;6.70;65.08
12785;BME280;6456;42.680;23.260;2023-03-15T03:02:38;93522.03;;;6.69;63.78
12785;BME280;6456;42.680;23.260;2023-03-15T03:05:06;93520.84;;;6.65;63.58
12785;BME280;6456;42.680;23.260;2023-03-15T03:07:34;93431.75;;;6.05;63.89
12785;BME280;6456;42.680;23.260;2023-03-15T03:10:01;93390.16;;;5.86;64.19
12785;BME280;6456;42.680;23.260;2023-03-15T03:12:28;93425.31;;;6.08;64.54
12785;BME280;6456;42.680;23.260;2023-03-15T03:14:55;93500.81;;;6.59;64.21
12785;BME280;6456;42.680;23.260;2023-03-15T03:17:23;93509.13;;;6.49;64.83
12785;BME280;6456;42.680;23.260;2023-03-15T03:19:50;93497.75;;;6.43;64.64
12785;BME280;6456;42.680;23.260;2023-03-15T03:22:17;93429.78;;;6.01;65.59
12785;BME280;6456;42.680;23.260;2023-03-15T03:24:44;93407.13;;;5.95;65.14
12785;BME280;6456;42.680;23.260;2023-03-15T03:27:12;93370.56;;;5.70;64.49
12785;BME280;6456;42.680;23.260;2023-03-15T03:29:41;93397.34;;;5.90;65.18
12785;BME280;6456;42.680;23.260;2023-03-15T03:32:08;93498.56;;;6.62;65.71
12785;BME280;6456;42.680;23.260;2023-03-15T03:34:36;93374.78;;;5.71;65.65
12785;BME280;6456;42.680;23.260;2023-03-15T03:37:03;93449.31;;;6.41;66.26
12785;BME280;6456;42.680;23.260;2023-03-15T03:39:30;93488.84;;;6.69;66.05
12785;BME280;6456;42.680;23.260;2023-03-15T03:41:57;93316.44;;;5.59;65.30
12785;BME280;6456;42.680;23.260;2023-03-15T03:44:24;93476.84;;;6.62;65.91
12785;BME280;6456;42.680;23.260;2023-03-15T03:46:51;93443.84;;;6.24;66.78
12785;BME280;6456;42.680;23.260;2023-03-15T03:49:18;93432.88;;;6.16;66.85
12785;BME280;6456;42.680;23.260;2023-03-15T03:51:48;93348.47;;;5.72;67.33
12785;BME280;6456;42.680;23.260;2023-03-15T03:54:15;93340.88;;;5.64;67.39
12785;BME280;6456;42.680;23.260;2023-03-15T03:56:45;93430.13;;;6.29;68.89
12785;BME280;6456;42.680;23.260;2023-03-15T03:59:12;93467.47;;;6.54;68.96
12785;BME280;6456;42.680;23.260;2023-03-15T04:01:40;93381.56;;;6.03;68.44
12785;BME280;6456;42.680;23.260;2023-03-15T04:04:07;93393.03;;;6.20;68.30
12785;BME280;6456;42.680;23.260;2023-03-15T04:06:34;93296.03;;;5.56;67.48
12785;BME280;6456;42.680;23.260;2023-03-15T04:09:03;93297.81;;;5.55;68.70
12785;BME280;6456;42.680;23.260;2023-03-15T04:11:30;93462.94;;;6.68;69.32
12785;BME280;6456;42.680;23.260;2023-03-15T04:13:58;93354.25;;;5.99;68.18
12785;BME280;6456;42.680;23.260;2023-03-15T04:16:25;93407.38;;;6.36;67.13
12785;BME280;6456;42.680;23.260;2023-03-15T04:18:53;93419.34;;;6.43;66.79
12785;BME280;6456;42.680;23.260;2023-03-15T04:21:21;93452.91;;;6.65;66.85
12785;BME280;6456;42.680;23.260;2023-03-15T04:23:47;93430.53;;;6.51;67.06
12785;BME280;6456;42.680;23.260;2023-03-15T04:26:16;93463.06;;;6.73;67.08
12785;BME280;6456;42.680;23.260;2023-03-15T04:28:43;93430.53;;;6.51;66.78
12785;BME280;6456;42.680;23.260;2023-03-15T04:31:10;93380.56;;;6.22;66.23
12785;BME280;6456;42.680;23.260;2023-03-15T04:33:39;93406.16;;;6.38;66.38
12785;BME280;6456;42.680;23.260;2023-03-15T04:36:06;93371.72;;;6.23;66.10
12785;BME280;6456;42.680;23.260;2023-03-15T04:38:33;93450.16;;;6.78;65.98
12785;BME280;6456;42.680;23.260;2023-03-15T04:41:00;93335.09;;;5.87;66.02
12785;BME280;6456;42.680;23.260;2023-03-15T04:43:36;93261.31;;;5.55;66.08
12785;BME280;6456;42.680;23.260;2023-03-15T04:46:03;93365.56;;;6.18;66.91
12785;BME280;6456;42.680;23.260;2023-03-15T04:48:30;93449.91;;;6.79;67.16
12785;BME280;6456;42.680;23.260;2023-03-15T04:50:57;93353.16;;;6.13;66.96
12785;BME280;6456;42.680;23.260;2023-03-15T04:53:25;93370.13;;;6.22;66.67
12785;BME280;6456;42.680;23.260;2023-03-15T04:55:52;93452.25;;;6.87;66.54
12785;BME280;6456;42.680;23.260;2023-03-15T04:58:19;93296.56;;;5.82;66.17
12785;BME280;6456;42.680;23.260;2023-03-15T05:00:47;93427.34;;;6.67;66.46
12785;BME280;6456;42.680;23.260;2023-03-15T05:03:15;93391.19;;;6.45;66.51
12785;BME280;6456;42.680;23.260;2023-03-15T05:05:43;93374.41;;;6.35;66.65
12785;BME280;6456;42.680;23.260;2023-03-15T05:08:11;93385.97;;;6.45;66.84
12785;BME280;6456;42.680;23.260;2023-03-15T05:10:38;93388.16;;;6.49;67.44
12785;BME280;6456;42.680;23.260;2023-03-15T05:13:08;93376.75;;;6.43;68.46
12785;BME280;6456;42.680;23.260;2023-03-15T05:15:38;93389.16;;;6.47;68.74
12785;BME280;6456;42.680;23.260;2023-03-15T05:18:06;93351.25;;;6.20;68.56
12785;BME280;6456;42.680;23.260;2023-03-15T05:20:33;93286.31;;;5.88;68.00
12785;BME280;6456;42.680;23.260;2023-03-15T05:23:00;93409.13;;;6.60;66.96
12785;BME280;6456;42.680;23.260;2023-03-15T05:25:28;93367.53;;;6.40;66.74
12785;BME280;6456;42.680;23.260;2023-03-15T05:27:55;93399.03;;;6.64;66.22
12785;BME280;6456;42.680;23.260;2023-03-15T05:30:22;93339.00;;;6.39;66.18
12785;BME280;6456;42.680;23.260;2023-03-15T05:32:49;93366.78;;;6.52;66.01
12785;BME280;6456;42.680;23.260;2023-03-15T05:38:39;93445.22;;;7.06;64.86
12785;BME280;6456;42.680;23.260;2023-03-15T05:41:06;93408.47;;;6.83;63.44
12785;BME280;6456;42.680;23.260;2023-03-15T05:43:33;93277.41;;;6.13;63.52
12785;BME280;6456;42.680;23.260;2023-03-15T05:46:00;93390.06;;;6.89;64.06
12785;BME280;6456;42.680;23.260;2023-03-15T05:48:27;93413.97;;;6.93;64.25
12785;BME280;6456;42.680;23.260;2023-03-15T05:50:54;93331.16;;;6.57;64.24
12785;BME280;6456;42.680;23.260;2023-03-15T05:53:21;93361.28;;;6.78;64.00
12785;BME280;6456;42.680;23.260;2023-03-15T05:55:49;93322.22;;;6.46;63.53
12785;BME280;6456;42.680;23.260;2023-03-15T05:58:16;93315.47;;;6.57;63.95
12785;BME280;6456;42.680;23.260;2023-03-15T06:00:46;93319.47;;;6.60;64.43
12785;BME280;6456;42.680;23.260;2023-03-15T06:03:13;93317.09;;;6.58;63.65
12785;BME280;6456;42.680;23.260;2023-03-15T06:05:41;93290.72;;;6.41;63.51
12785;BME280;6456;42.680;23.260;2023-03-15T06:08:08;93419.78;;;7.43;63.30
12785;BME280;6456;42.680;23.260;2023-03-15T06:10:35;93330.75;;;6.90;62.40
12785;BME280;6456;42.680;23.260;2023-03-15T06:13:03;93434.59;;;7.79;61.92
12785;BME280;6456;42.680;23.260;2023-03-15T06:15:30;93342.81;;;7.21;60.32
12785;BME280;6456;42.680;23.260;2023-03-15T06:17:57;93414.78;;;7.83;58.77
12785;BME280;6456;42.680;23.260;2023-03-15T06:20:24;93442.06;;;8.16;57.22
12785;BME280;6456;42.680;23.260;2023-03-15T06:22:51;93293.91;;;7.21;54.87
12785;BME280;6456;42.680;23.260;2023-03-15T06:25:18;93446.75;;;8.26;55.02
12785;BME280;6456;42.680;23.260;2023-03-15T06:27:45;93440.59;;;8.32;54.74
12785;BME280;6456;42.680;23.260;2023-03-15T06:30:14;93374.25;;;7.97;54.40
12785;BME280;6456;42.680;23.260;2023-03-15T06:32:41;93393.66;;;8.19;54.54
12785;BME280;6456;42.680;23.260;2023-03-15T06:35:08;93424.78;;;8.38;53.21
12785;BME280;6456;42.680;23.260;2023-03-15T06:37:35;93427.53;;;8.44;53.90
12785;BME280;6456;42.680;23.260;2023-03-15T06:40:03;93413.06;;;8.41;53.55
12785;BME280;6456;42.680;23.260;2023-03-15T06:42:32;93421.03;;;8.46;52.30
12785;BME280;6456;42.680;23.260;2023-03-15T06:44:59;93386.03;;;8.41;51.69
12785;BME280;6456;42.680;23.260;2023-03-15T06:47:28;93409.28;;;8.60;51.32
12785;BME280;6456;42.680;23.260;2023-03-15T06:49:55;93424.88;;;8.78;51.13
12785;BME280;6456;42.680;23.260;2023-03-15T06:52:22;93428.41;;;8.84;51.14
12785;BME280;6456;42.680;23.260;2023-03-15T06:54:49;93427.50;;;8.78;50.49
12785;BME280;6456;42.680;23.260;2023-03-15T06:57:15;93439.34;;;8.81;50.10
12785;BME280;6456;42.680;23.260;2023-03-15T06:59:42;93357.88;;;8.48;50.22
12785;BME280;6456;42.680;23.260;2023-03-15T07:02:12;93424.97;;;8.95;49.84
12785;BME280;6456;42.680;23.260;2023-03-15T07:04:41;93398.53;;;8.85;48.53
12785;BME280;6456;42.680;23.260;2023-03-15T07:07:09;93319.72;;;8.40;48.52
12785;BME280;6456;42.680;23.260;2023-03-15T07:09:36;93422.28;;;9.18;48.05
12785;BME280;6456;42.680;23.260;2023-03-15T07:12:03;93390.69;;;9.13;47.95
12785;BME280;6456;42.680;23.260;2023-03-15T07:14:30;93400.50;;;9.18;47.56
12785;BME280;6456;42.680;23.260;2023-03-15T07:16:57;93356.56;;;8.85;48.37
12785;BME280;6456;42.680;23.260;2023-03-15T07:19:23;93433.13;;;9.22;48.48
12785;BME280;6456;42.680;23.260;2023-03-15T07:21:52;93304.66;;;8.59;47.96
12785;BME280;6456;42.680;23.260;2023-03-15T07:24:20;93305.81;;;8.79;47.43
12785;BME280;6456;42.680;23.260;2023-03-15T07:26:46;93429.31;;;9.69;47.61
12785;BME280;6456;42.680;23.260;2023-03-15T07:29:13;93415.69;;;9.72;47.53
12785;BME280;6456;42.680;23.260;2023-03-15T07:31:45;93333.59;;;9.03;48.01
12785;BME280;6456;42.680;23.260;2023-03-15T07:34:12;93402.28;;;9.57;46.99
12785;BME280;6456;42.680;23.260;2023-03-15T07:36:39;93361.59;;;9.15;47.10
12785;BME280;6456;42.680;23.260;2023-03-15T07:39:10;93415.75;;;9.60;47.35
12785;BME280;6456;42.680;23.260;2023-03-15T07:41:36;93319.31;;;9.28;47.69
12785;BME280;6456;42.680;23.260;2023-03-15T07:44:04;93326.66;;;9.42;46.38
12785;BME280;6456;42.680;23.260;2023-03-15T07:46:31;93346.59;;;9.72;45.79
12785;BME280;6456;42.680;23.260;2023-03-15T07:48:57;93422.25;;;10.03;45.88
12785;BME280;6456;42.680;23.260;2023-03-15T07:51:24;93370.34;;;9.77;44.79
12785;BME280;6456;42.680;23.260;2023-03-15T07:53:51;93402.41;;;9.95;45.99
12785;BME280;6456;42.680;23.260;2023-03-15T07:56:20;93340.59;;;9.59;45.25
12785;BME280;6456;42.680;23.260;2023-03-15T07:58:46;93387.72;;;9.94;45.64
12785;BME280;6456;42.680;23.260;2023-03-15T08:01:13;93344.84;;;9.60;45.93
12785;BME280;6456;42.680;23.260;2023-03-15T08:03:40;93372.72;;;9.78;45.20
12785;BME280;6456;42.680;23.260;2023-03-15T08:06:07;93388.94;;;9.75;44.77
12785;BME280;6456;42.680;23.260;2023-03-15T08:08:34;93377.88;;;9.73;44.58
12785;BME280;6456;42.680;23.260;2023-03-15T08:11:00;93302.09;;;9.32;44.95
12785;BME280;6456;42.680;23.260;2023-03-15T08:13:29;93397.88;;;10.07;44.87
12785;BME280;6456;42.680;23.260;2023-03-15T08:15:55;93392.34;;;10.20;44.81
12785;BME280;6456;42.680;23.260;2023-03-15T08:18:22;93300.56;;;10.02;44.22
12785;BME280;6456;42.680;23.260;2023-03-15T08:20:49;93381.59;;;10.77;43.92
12785;BME280;6456;42.680;23.260;2023-03-15T08:23:16;93358.28;;;10.64;44.41
12785;BME280;6456;42.680;23.260;2023-03-15T08:25:43;93390.66;;;10.86;44.37
12785;BME280;6456;42.680;23.260;2023-03-15T08:28:10;93397.94;;;11.01;43.68
12785;BME280;6456;42.680;23.260;2023-03-15T08:30:39;93389.38;;;11.10;43.29
12785;BME280;6456;42.680;23.260;2023-03-15T08:33:06;93345.94;;;10.86;43.11
12785;BME280;6456;42.680;23.260;2023-03-15T08:35:33;93379.41;;;11.12;43.97
12785;BME280;6456;42.680;23.260;2023-03-15T08:38:00;93355.09;;;10.83;44.27
12785;BME280;6456;42.680;23.260;2023-03-15T08:40:30;93278.69;;;10.52;43.54
12785;BME280;6456;42.680;23.260;2023-03-15T08:42:57;93224.38;;;10.19;43.44
12785;BME280;6456;42.680;23.260;2023-03-15T08:45:25;93359.44;;;11.16;44.50
12785;BME280;6456;42.680;23.260;2023-03-15T08:47:57;93364.34;;;11.29;44.80
12785;BME280;6456;42.680;23.260;2023-03-15T08:50:25;93284.31;;;10.60;43.65
12785;BME280;6456;42.680;23.260;2023-03-15T08:52:52;93298.63;;;10.69;44.46
12785;BME280;6456;42.680;23.260;2023-03-15T08:55:19;93301.00;;;10.71;44.49
12785;BME280;6456;42.680;23.260;2023-03-15T08:57:46;93381.06;;;11.18;44.81
12785;BME280;6456;42.680;23.260;2023-03-15T09:00:14;93282.22;;;10.41;44.96
12785;BME280;6456;42.680;23.260;2023-03-15T09:02:45;93337.16;;;10.59;44.83
12785;BME280;6456;42.680;23.260;2023-03-15T09:05:14;93295.16;;;10.25;45.52
12785;BME280;6456;42.680;23.260;2023-03-15T09:07:42;93300.69;;;10.46;44.68
12785;BME280;6456;42.680;23.260;2023-03-15T09:10:10;93270.03;;;10.35;44.13
12785;BME280;6456;42.680;23.260;2023-03-15T09:12:39;93337.84;;;10.92;44.59
12785;BME280;6456;42.680;23.260;2023-03-15T09:15:07;93358.84;;;11.09;44.34
12785;BME280;6456;42.680;23.260;2023-03-15T09:17:34;93310.78;;;10.75;43.95
12785;BME280;6456;42.680;23.260;2023-03-15T09:20:01;93352.47;;;11.05;44.69
12785;BME280;6456;42.680;23.260;2023-03-15T09:22:33;93308.66;;;10.72;44.75
12785;BME280;6456;42.680;23.260;2023-03-15T09:25:00;93316.13;;;11.02;44.97
12785;BME280;6456;42.680;23.260;2023-03-15T09:27:29;93303.91;;;11.18;44.83
12785;BME280;6456;42.680;23.260;2023-03-15T09:29:55;93361.16;;;11.54;44.75
12785;BME280;6456;42.680;23.260;2023-03-15T09:32:22;93369.59;;;11.78;44.08
12785;BME280;6456;42.680;23.260;2023-03-15T09:34:49;93344.56;;;11.53;44.51
12785;BME280;6456;42.680;23.260;2023-03-15T09:37:16;93321.50;;;11.39;44.06
12785;BME280;6456;42.680;23.260;2023-03-15T09:39:47;93265.81;;;11.25;43.69
12785;BME280;6456;42.680;23.260;2023-03-15T09:42:21;93307.84;;;11.69;43.54
12785;BME280;6456;42.680;23.260;2023-03-15T09:44:52;93276.25;;;11.42;43.49
12785;BME280;6456;42.680;23.260;2023-03-15T09:47:32;93310.94;;;11.66;43.71
12785;BME280;6456;42.680;23.260;2023-03-15T09:50:03;93292.03;;;11.69;43.87
12785;BME280;6456;42.680;23.260;2023-03-15T09:52:38;93213.22;;;11.35;43.43
12785;BME280;6456;42.680;23.260;2023-03-15T09:55:13;93298.47;;;11.83;43.52
12785;BME280;6456;42.680;23.260;2023-03-15T09:57:44;93309.13;;;11.98;43.37
12785;BME280;6456;42.680;23.260;2023-03-15T10:00:14;93314.25;;;12.09;43.42
12785;BME280;6456;42.680;23.260;2023-03-15T10:02:47;93266.28;;;11.76;43.17
12785;BME280;6456;42.680;23.260;2023-03-15T10:05:21;93330.38;;;12.18;43.28
12785;BME280;6456;42.680;23.260;2023-03-15T10:07:51;93285.91;;;11.90;43.14
12785;BME280;6456;42.680;23.260;2023-03-15T10:10:26;93339.59;;;12.15;42.87
12785;BME280;6456;42.680;23.260;2023-03-15T10:12:58;93242.28;;;11.45;43.42
12785;BME280;6456;42.680;23.260;2023-03-15T10:15:38;93267.53;;;11.68;44.57
12785;BME280;6456;42.680;23.260;2023-03-15T10:18:27;93347.06;;;12.29;43.78
12785;BME280;6456;42.680;23.260;2023-03-15T10:21:01;93341.13;;;12.48;43.91
12785;BME280;6456;42.680;23.260;2023-03-15T10:23:36;93312.53;;;12.30;42.05
12785;BME280;6456;42.680;23.260;2023-03-15T10:26:10;93342.63;;;12.76;41.84
12785;BME280;6456;42.680;23.260;2023-03-15T10:28:39;93309.91;;;12.77;41.44
12785;BME280;6456;42.680;23.260;2023-03-15T10:31:14;93319.25;;;13.05;41.31
12785;BME280;6456;42.680;23.260;2023-03-15T10:33:44;93331.38;;;13.06;41.11
12785;BME280;6456;42.680;23.260;2023-03-15T10:36:14;93319.03;;;13.11;40.87
12785;BME280;6456;42.680;23.260;2023-03-15T10:38:42;93314.44;;;12.86;41.11
12785;BME280;6456;42.680;23.260;2023-03-15T10:41:26;93333.16;;;12.80;41.20
12785;BME280;6456;42.680;23.260;2023-03-15T10:43:58;93335.00;;;12.84;41.55
12785;BME280;6456;42.680;23.260;2023-03-15T10:46:26;93281.00;;;12.50;42.20
12785;BME280;6456;42.680;23.260;2023-03-15T10:48:56;93327.06;;;12.79;41.76
12785;BME280;6456;42.680;23.260;2023-03-15T10:51:26;93216.47;;;12.16;41.43
12785;BME280;6456;42.680;23.260;2023-03-15T10:53:55;93332.84;;;12.76;41.39
12785;BME280;6456;42.680;23.260;2023-03-15T10:56:27;93251.91;;;12.35;41.66
12785;BME280;6456;42.680;23.260;2023-03-15T10:58:55;93219.41;;;12.25;41.76
12785;BME280;6456;42.680;23.260;2023-03-15T11:01:25;93278.50;;;12.80;41.74
12785;BME280;6456;42.680;23.260;2023-03-15T11:04:12;93325.94;;;13.22;42.34
12785;BME280;6456;42.680;23.260;2023-03-15T11:06:43;93323.56;;;13.26;41.66
12785;BME280;6456;42.680;23.260;2023-03-15T11:09:13;93305.81;;;13.06;41.56
12785;BME280;6456;42.680;23.260;2023-03-15T11:11:59;93295.25;;;13.06;41.61
12785;BME280;6456;42.680;23.260;2023-03-15T11:14:31;93327.81;;;13.32;41.40
12785;BME280;6456;42.680;23.260;2023-03-15T11:17:00;93318.81;;;13.33;41.25
12785;BME280;6456;42.680;23.260;2023-03-15T11:19:29;93314.34;;;13.38;40.74
12785;BME280;6456;42.680;23.260;2023-03-15T11:21:58;93324.44;;;13.46;41.48
12785;BME280;6456;42.680;23.260;2023-03-15T11:24:28;93324.44;;;13.52;41.30
12785;BME280;6456;42.680;23.260;2023-03-15T11:27:00;93330.78;;;13.56;41.81
12785;BME280;6456;42.680;23.260;2023-03-15T11:29:29;93328.41;;;13.54;43.93
12785;BME280;6456;42.680;23.260;2023-03-15T11:31:58;93335.75;;;13.37;46.30
12785;BME280;6456;42.680;23.260;2023-03-15T11:34:36;93339.91;;;13.18;48.85
12785;BME280;6456;42.680;23.260;2023-03-15T11:37:09;93326.06;;;12.96;50.59
12785;BME280;6456;42.680;23.260;2023-03-15T11:39:43;93321.31;;;12.88;50.77
12785;BME280;6456;42.680;23.260;2023-03-15T11:42:19;93315.44;;;12.80;50.09
12785;BME280;6456;42.680;23.260;2023-03-15T11:44:50;93319.38;;;12.78;49.94
12785;BME280;6456;42.680;23.260;2023-03-15T11:47:27;93216.97;;;12.13;50.49
12785;BME280;6456;42.680;23.260;2023-03-15T11:49:57;93226.50;;;12.19;50.58
12785;BME280;6456;42.680;23.260;2023-03-15T11:52:26;93205.59;;;12.02;51.15
12785;BME280;6456;42.680;23.260;2023-03-15T11:54:56;93179.75;;;11.99;52.25
12785;BME280;6456;42.680;23.260;2023-03-15T11:57:42;93291.09;;;12.68;51.81
12785;BME280;6456;42.680;23.260;2023-03-15T12:00:54;93313.91;;;12.84;54.01
12785;BME280;6456;42.680;23.260;2023-03-15T12:03:36;93232.84;;;12.23;54.67
12785;BME280;6456;42.680;23.260;2023-03-15T12:06:10;93255.91;;;12.48;54.00
12785;BME280;6456;42.680;23.260;2023-03-15T12:08:43;93215.44;;;12.17;54.02
12785;BME280;6456;42.680;23.260;2023-03-15T12:11:11;93226.06;;;12.37;54.62
12785;BME280;6456;42.680;23.260;2023-03-15T12:13:50;93229.81;;;12.46;54.65
12785;BME280;6456;42.680;23.260;2023-03-15T12:16:20;93294.91;;;12.93;54.16
12785;BME280;6456;42.680;23.260;2023-03-15T12:18:48;93159.44;;;12.00;55.35
12785;BME280;6456;42.680;23.260;2023-03-15T12:21:30;93288.00;;;12.81;55.47
12785;BME280;6456;42.680;23.260;2023-03-15T12:24:05;93257.88;;;12.67;55.24
12785;BME280;6456;42.680;23.260;2023-03-15T12:26:43;93192.72;;;12.11;54.93
12785;BME280;6456;42.680;23.260;2023-03-15T12:29:18;93182.09;;;12.01;53.63
12785;BME280;6456;42.680;23.260;2023-03-15T12:31:55;93284.78;;;12.69;53.54
12785;BME280;6456;42.680;23.260;2023-03-15T12:34:29;93288.22;;;12.65;52.54
12785;BME280;6456;42.680;23.260;2023-03-15T12:36:59;93280.28;;;12.65;52.13
12785;BME280;6456;42.680;23.260;2023-03-15T12:39:45;93167.84;;;11.92;49.98
12785;BME280;6456;42.680;23.260;2023-03-15T12:51:03;93285.19;;;12.46;50.38
12785;BME280;6456;42.680;23.260;2023-03-15T12:53:38;93208.22;;;12.02;50.25
12785;BME280;6456;42.680;23.260;2023-03-15T12:56:27;93178.78;;;11.74;49.70
12785;BME280;6456;42.680;23.260;2023-03-15T12:59:02;93165.03;;;11.67;49.93
12785;BME280;6456;42.680;23.260;2023-03-15T13:01:31;93174.84;;;11.76;49.87
12785;BME280;6456;42.680;23.260;2023-03-15T13:04:02;93175.66;;;11.77;49.13
12785;BME280;6456;42.680;23.260;2023-03-15T13:06:54;93247.81;;;12.12;48.95
12785;BME280;6456;42.680;23.260;2023-03-15T13:09:38;93164.47;;;11.65;48.62
12785;BME280;6456;42.680;23.260;2023-03-15T13:12:13;93143.81;;;11.46;48.19
12785;BME280;6456;42.680;23.260;2023-03-15T13:14:48;93257.94;;;12.31;48.02
12785;BME280;6456;42.680;23.260;2023-03-15T13:17:27;93155.09;;;11.42;48.22
12785;BME280;6456;42.680;23.260;2023-03-15T13:20:22;93195.91;;;11.71;48.64
12785;BME280;6456;42.680;23.260;2023-03-15T13:23:02;93136.78;;;11.25;49.42
12785;BME280;6456;42.680;23.260;2023-03-15T13:25:39;93110.84;;;11.02;49.84
12785;BME280;6456;42.680;23.260;2023-03-15T13:28:17;93246.28;;;11.80;50.15
12785;BME280;6456;42.680;23.260;2023-03-15T13:30:48;93144.63;;;11.15;50.10
12785;BME280;6456;42.680;23.260;2023-03-15T13:33:23;93251.91;;;11.93;50.65